createdAt,value
2022-08-17T00:02:00.502Z,100.00
2022-08-17T00:04:31.353Z,100.00
2022-08-17T00:06:57.790Z,100.00
2022-08-17T00:09:24.235Z,100.00
2022-08-17T00:12:40.866Z,100.00
2022-08-17T00:14:37.316Z,100.00
2022-08-17T00:17:04.580Z,100.00
2022-08-17T00:19:32.496Z,100.00
2022-08-17T00:22:33.213Z,100.00
2022-08-17T00:24:46.934Z,100.00
2022-08-17T00:27:13.363Z,100.00
2022-08-17T00:29:39.813Z,100.00
2022-08-17T00:33:14.382Z,100.00
2022-08-17T00:34:52.905Z,100.00
2022-08-17T00:37:19.328Z,100.00
2022-08-17T00:39:45.799Z,100.00
2022-08-17T00:42:17.551Z,100.00
2022-08-17T00:44:44.454Z,100.00
2022-08-17T00:47:10.863Z,100.00
2022-08-17T00:49:37.286Z,100.00
2022-08-17T00:52:11.650Z,100.00
2022-08-17T00:54:42.861Z,100.00
2022-08-17T00:57:24.977Z,100.00
2022-08-17T01:00:03.316Z,100.00
2022-08-17T01:02:44.439Z,100.00
2022-08-17T01:05:21.129Z,100.00
2022-08-17T01:07:50.680Z,100.00
2022-08-17T01:10:59.041Z,100.00
2022-08-17T01:13:07.365Z,100.00
2022-08-17T01:15:41.276Z,100.00
2022-08-17T01:18:13.499Z,100.00
2022-08-17T01:20:48.839Z,100.00
2022-08-17T01:23:20.593Z,100.00
2022-08-17T01:25:51.506Z,100.00
2022-08-17T01:28:53.227Z,100.00
2022-08-17T01:31:07.542Z,100.00
2022-08-17T01:33:34.382Z,100.00
2022-08-17T01:36:00.801Z,100.00
2022-08-17T01:38:31.547Z,100.00
2022-08-17T01:41:04.673Z,100.00
2022-08-17T01:43:38.963Z,100.00
2022-08-17T01:46:05.654Z,100.00
2022-08-17T01:48:33.925Z,100.00
2022-08-17T01:51:00.896Z,100.00
2022-08-17T01:53:39.877Z,100.00
2022-08-17T01:56:09.469Z,100.00
2022-08-17T01:58:36.491Z,100.00
2022-08-17T02:01:04.522Z,100.00
2022-08-17T02:03:31.997Z,100.00
2022-08-17T02:05:58.556Z,100.00
2022-08-17T02:08:37.135Z,100.00
2022-08-17T02:11:11.646Z,100.00
2022-08-17T02:13:38.880Z,100.00
2022-08-17T02:16:05.307Z,100.00
2022-08-17T02:18:31.729Z,100.00
2022-08-17T02:20:58.349Z,100.00
2022-08-17T02:23:26.909Z,100.00
2022-08-17T02:25:53.906Z,100.00
2022-08-17T02:28:20.325Z,100.00
2022-08-17T02:30:59.759Z,100.00
2022-08-17T02:33:43.188Z,100.00
2022-08-17T02:36:11.307Z,100.00
2022-08-17T02:38:38.644Z,100.00
2022-08-17T02:41:05.212Z,100.00
2022-08-17T02:43:31.880Z,100.00
2022-08-17T02:45:58.314Z,100.00
2022-08-17T02:48:31.446Z,100.00
2022-08-17T02:50:59.096Z,100.00
2022-08-17T02:53:25.937Z,100.00
2022-08-17T02:55:52.577Z,100.00
2022-08-17T02:58:34.698Z,100.00
2022-08-17T03:01:03.234Z,100.00
2022-08-17T03:03:29.725Z,100.00
2022-08-17T03:05:56.322Z,100.00
2022-08-17T03:08:23.349Z,100.00
2022-08-17T03:10:50.321Z,100.00
2022-08-17T03:13:16.959Z,100.00
2022-08-17T03:15:45.168Z,100.00
2022-08-17T03:18:19.285Z,100.00
2022-08-17T03:20:52.422Z,100.00
2022-08-17T03:23:18.866Z,100.00
2022-08-17T03:25:52.966Z,100.00
2022-08-17T03:28:20.073Z,100.00
2022-08-17T03:30:46.502Z,100.00
2022-08-17T03:33:13.044Z,100.00
2022-08-17T03:35:40.332Z,100.00
2022-08-17T03:38:08.569Z,100.00
2022-08-17T03:40:56.753Z,100.00
2022-08-17T03:43:22.598Z,100.00
2022-08-17T03:46:10.075Z,100.00
2022-08-17T03:49:14.577Z,100.00
2022-08-17T03:51:59.489Z,100.00
2022-08-17T03:54:44.216Z,100.00
2022-08-17T03:57:11.216Z,100.00
2022-08-17T03:59:38.720Z,100.00
2022-08-17T04:02:14.244Z,100.00
2022-08-17T04:04:40.681Z,100.00
2022-08-17T04:07:07.339Z,100.00
2022-08-17T04:09:34.012Z,100.00
2022-08-17T04:12:02.411Z,100.00
2022-08-17T04:14:39.193Z,100.00
2022-08-17T04:17:21.135Z,100.00
2022-08-17T04:19:47.564Z,100.00
2022-08-17T04:22:32.681Z,100.00
2022-08-17T04:25:04.277Z,100.00
2022-08-17T04:27:30.713Z,100.00
2022-08-17T04:29:58.408Z,100.00
2022-08-17T04:33:04.735Z,100.00
2022-08-17T04:35:11.252Z,100.00
2022-08-17T04:37:37.651Z,100.00
2022-08-17T04:40:27.433Z,100.00
2022-08-17T04:43:04.805Z,100.00
2022-08-17T04:45:32.309Z,100.00
2022-08-17T04:47:59.544Z,100.00
2022-08-17T04:50:26.026Z,100.00
2022-08-17T04:52:52.457Z,100.00
2022-08-17T04:55:18.983Z,100.00
2022-08-17T04:57:45.438Z,100.00
2022-08-17T05:00:12.248Z,100.00
2022-08-17T05:02:50.745Z,100.00
2022-08-17T05:05:22.885Z,100.00
2022-08-17T05:07:54.368Z,100.00
2022-08-17T05:10:25.450Z,100.00
2022-08-17T05:13:09.414Z,100.00
2022-08-17T05:15:38.981Z,100.00
2022-08-17T05:18:12.975Z,100.00
2022-08-17T05:20:40.708Z,100.00
2022-08-17T05:23:10.539Z,100.00
2022-08-17T05:25:48.720Z,100.00
2022-08-17T05:28:18.359Z,100.00
2022-08-17T05:30:45.786Z,100.00
2022-08-17T05:33:21.354Z,100.00
2022-08-17T05:35:48.823Z,100.00
2022-08-17T05:38:16.808Z,100.00
2022-08-17T05:40:43.841Z,100.00
2022-08-17T05:43:14.983Z,100.00
2022-08-17T05:46:02.794Z,100.00
2022-08-17T05:48:39.592Z,100.00
2022-08-17T05:51:06.767Z,100.00
2022-08-17T05:53:44.045Z,100.00
2022-08-17T05:56:56.526Z,100.00
2022-08-17T05:59:59.668Z,100.00
2022-08-17T06:02:54.091Z,100.00
2022-08-17T06:05:38.940Z,100.00
2022-08-17T06:08:48.142Z,100.00
2022-08-17T06:11:42.305Z,100.00
2022-08-17T06:14:29.092Z,100.00
2022-08-17T06:17:00.978Z,100.00
2022-08-17T06:19:40.583Z,100.00
2022-08-17T06:22:08.749Z,100.00
2022-08-17T06:24:43.380Z,100.00
2022-08-17T06:27:25.570Z,100.00
2022-08-17T06:29:58.984Z,100.00
2022-08-17T06:32:25.653Z,100.00
2022-08-17T06:34:52.547Z,100.00
2022-08-17T06:37:43.044Z,100.00
2022-08-17T06:40:15.588Z,100.00
2022-08-17T06:43:07.466Z,100.00
2022-08-17T06:45:42.257Z,100.00
2022-08-17T06:48:17.750Z,100.00
2022-08-17T06:50:49.780Z,100.00
2022-08-17T06:53:17.584Z,100.00
2022-08-17T06:55:52.110Z,100.00
2022-08-17T06:58:22.225Z,100.00
2022-08-17T07:00:58.082Z,100.00
2022-08-17T07:03:54.649Z,100.00
2022-08-17T07:06:29.907Z,100.00
2022-08-17T07:09:28.033Z,100.00
2022-08-17T07:12:00.734Z,100.00
2022-08-17T07:14:31.897Z,100.00
2022-08-17T07:17:01.938Z,100.00
2022-08-17T07:19:31.621Z,100.00
2022-08-17T07:22:08.805Z,100.00
2022-08-17T07:24:57.647Z,100.00
2022-08-17T07:27:52.081Z,100.00
2022-08-17T07:30:25.674Z,100.00
2022-08-17T07:33:01.250Z,100.00
2022-08-17T07:35:31.275Z,100.00
2022-08-17T07:38:32.056Z,100.00
2022-08-17T07:41:01.808Z,100.00
2022-08-17T07:43:34.816Z,100.00
2022-08-17T07:46:39.725Z,100.00
2022-08-17T07:49:08.999Z,100.00
2022-08-17T07:51:43.704Z,100.00
2022-08-17T07:54:15.883Z,100.00
2022-08-17T07:57:08.335Z,100.00
2022-08-17T07:59:40.710Z,100.00
2022-08-17T08:02:38.563Z,100.00
2022-08-17T08:05:12.787Z,100.00
2022-08-17T08:07:48.225Z,100.00
2022-08-17T08:10:27.560Z,97.38
2022-08-17T08:13:24.045Z,96.69
2022-08-17T08:15:56.318Z,93.56
2022-08-17T08:18:55.041Z,84.34
2022-08-17T08:21:28.947Z,87.40
2022-08-17T08:24:01.396Z,86.84
2022-08-17T08:26:42.319Z,82.63
2022-08-17T08:29:28.065Z,84.94
2022-08-17T08:32:23.676Z,83.88
2022-08-17T08:35:11.343Z,84.71
2022-08-17T08:37:52.883Z,79.15
2022-08-17T08:40:38.289Z,75.73
2022-08-17T08:43:42.117Z,71.93
2022-08-17T08:46:39.465Z,69.04
2022-08-17T08:49:59.115Z,72.87
2022-08-17T08:52:49.870Z,71.76
2022-08-17T08:55:35.578Z,68.65
2022-08-17T08:58:31.744Z,69.12
2022-08-17T09:00:58.306Z,70.10
2022-08-17T09:03:52.678Z,65.96
2022-08-17T09:06:39.835Z,62.63
2022-08-17T09:09:33.649Z,63.92
2022-08-17T09:12:25.847Z,66.78
2022-08-17T09:15:13.226Z,66.33
2022-08-17T09:19:03.565Z,61.38
2022-08-17T09:21:33.657Z,61.18
2022-08-17T09:24:32.970Z,62.20
2022-08-17T09:27:11.609Z,59.62
2022-08-17T09:29:41.274Z,57.68
2022-08-17T09:32:22.501Z,58.66
2022-08-17T09:35:00.169Z,59.13
2022-08-17T09:37:49.972Z,58.77
2022-08-17T09:40:24.437Z,58.29
2022-08-17T09:42:59.161Z,58.16
2022-08-17T09:45:35.915Z,58.18
2022-08-17T09:48:08.673Z,58.89
2022-08-17T09:51:05.377Z,58.51
2022-08-17T09:53:25.247Z,59.38
2022-08-17T09:55:57.934Z,60.78
2022-08-17T09:58:42.490Z,60.02
2022-08-17T10:01:31.463Z,59.19
2022-08-17T10:04:29.877Z,58.33
2022-08-17T10:07:12.705Z,59.77
2022-08-17T10:10:13.548Z,60.34
2022-08-17T10:12:54.100Z,59.62
2022-08-17T10:15:43.012Z,59.26
2022-08-17T10:18:32.173Z,59.43
2022-08-17T10:21:20.493Z,59.65
2022-08-17T10:24:19.028Z,60.01
2022-08-17T10:26:56.651Z,59.51
2022-08-17T10:29:47.334Z,59.69
2022-08-17T10:32:35.873Z,60.76
2022-08-17T10:35:17.950Z,61.08
2022-08-17T10:37:47.267Z,62.34
2022-08-17T10:40:53.008Z,61.82
2022-08-17T10:43:38.413Z,62.80
2022-08-17T10:46:33.504Z,62.70
2022-08-17T10:49:20.979Z,62.38
2022-08-17T10:51:49.711Z,63.19
2022-08-17T10:54:24.964Z,64.27
2022-08-17T10:56:55.954Z,64.21
2022-08-17T10:59:34.549Z,64.11
2022-08-17T11:02:00.847Z,64.89
2022-08-17T11:04:39.153Z,65.21
2022-08-17T11:07:08.486Z,65.70
2022-08-17T11:09:58.311Z,66.02
2022-08-17T11:12:33.687Z,66.39
2022-08-17T11:15:16.260Z,67.01
2022-08-17T11:17:57.444Z,68.12
2022-08-17T11:20:38.349Z,67.79
2022-08-17T11:23:30.296Z,68.51
2022-08-17T11:25:58.855Z,69.45
2022-08-17T11:28:34.182Z,70.20
2022-08-17T11:31:23.583Z,72.88
2022-08-17T11:34:26.199Z,73.28
2022-08-17T11:37:00.919Z,73.87
2022-08-17T11:40:06.483Z,74.93
2022-08-17T11:42:57.083Z,75.30
2022-08-17T11:45:35.880Z,76.46
2022-08-17T11:48:40.609Z,77.05
2022-08-17T11:51:32.149Z,77.71
2022-08-17T11:54:33.763Z,77.29
2022-08-17T11:57:36.121Z,76.82
2022-08-17T12:00:11.092Z,78.21
2022-08-17T12:02:48.475Z,77.12
2022-08-17T12:05:16.706Z,77.84
2022-08-17T12:07:46.930Z,76.28
2022-08-17T12:10:21.404Z,76.69
2022-08-17T12:12:50.141Z,77.39
2022-08-17T12:15:19.274Z,80.55
2022-08-17T12:17:53.747Z,80.24
2022-08-17T12:20:29.283Z,78.70
2022-08-17T12:23:04.805Z,75.62
2022-08-17T12:25:41.174Z,75.07
2022-08-17T12:28:28.561Z,75.40
2022-08-17T12:31:01.058Z,76.95
2022-08-17T12:33:28.855Z,79.02
2022-08-17T12:36:02.763Z,80.25
2022-08-17T12:38:34.296Z,79.99
2022-08-17T12:41:21.705Z,78.33
2022-08-17T12:44:01.999Z,80.57
2022-08-17T12:46:51.572Z,78.98
2022-08-17T12:49:42.103Z,76.86
2022-08-17T12:52:12.211Z,77.41
2022-08-17T12:54:51.165Z,76.96
2022-08-17T12:57:21.777Z,76.49
2022-08-17T13:00:08.744Z,75.27
2022-08-17T13:02:54.792Z,71.82
2022-08-17T13:05:29.099Z,70.28
2022-08-17T13:07:58.120Z,66.33
2022-08-17T13:10:33.441Z,64.87
2022-08-17T13:13:05.181Z,66.38
2022-08-17T13:15:36.762Z,66.93
2022-08-17T13:18:28.129Z,64.64
2022-08-17T13:20:58.056Z,64.64
2022-08-17T13:23:26.177Z,64.92
2022-08-17T13:26:04.433Z,65.96
2022-08-17T13:28:36.281Z,63.58
2022-08-17T13:31:21.829Z,62.26
2022-08-17T13:33:49.188Z,64.07
2022-08-17T13:36:30.200Z,61.86
2022-08-17T13:39:13.390Z,57.67
2022-08-17T13:41:39.859Z,56.62
2022-08-17T13:44:37.082Z,54.13
2022-08-17T13:47:16.920Z,52.40
2022-08-17T13:49:49.048Z,50.33
2022-08-17T13:52:35.816Z,48.89
2022-08-17T13:55:18.355Z,49.32
2022-08-17T13:57:47.105Z,48.54
2022-08-17T14:00:18.763Z,48.67
2022-08-17T14:02:45.181Z,49.41
2022-08-17T14:05:11.730Z,47.57
2022-08-17T14:07:40.468Z,48.97
2022-08-17T14:10:17.233Z,47.89
2022-08-17T14:12:44.616Z,48.79
2022-08-17T14:15:13.753Z,51.30
2022-08-17T14:17:40.197Z,54.24
2022-08-17T14:20:09.612Z,55.27
2022-08-17T14:22:37.717Z,58.67
2022-08-17T14:25:05.071Z,58.96
2022-08-17T14:27:47.469Z,62.64
2022-08-17T14:30:20.007Z,64.47
2022-08-17T14:32:48.950Z,61.75
2022-08-17T14:35:16.062Z,59.98
2022-08-17T14:37:42.864Z,59.79
2022-08-17T14:40:11.763Z,61.86
2022-08-17T14:42:40.978Z,61.28
2022-08-17T14:45:31.874Z,62.30
2022-08-17T14:47:56.684Z,64.14
2022-08-17T14:50:24.064Z,65.20
2022-08-17T14:52:50.544Z,66.09
2022-08-17T14:55:18.216Z,65.92
2022-08-17T14:57:45.039Z,66.87
2022-08-17T15:00:11.974Z,66.59
2022-08-17T15:02:54.000Z,68.57
2022-08-17T15:05:25.881Z,67.83
2022-08-17T15:07:55.699Z,67.14
2022-08-17T15:10:22.420Z,66.55
2022-08-17T15:12:49.065Z,65.97
2022-08-17T15:15:16.947Z,62.57
2022-08-17T15:17:45.901Z,61.07
2022-08-17T15:20:15.614Z,59.93
2022-08-17T15:22:44.341Z,60.39
2022-08-17T15:25:11.545Z,63.87
2022-08-17T15:27:38.027Z,64.22
2022-08-17T15:30:05.956Z,65.02
2022-08-17T15:32:38.014Z,66.84
2022-08-17T15:35:06.485Z,68.29
2022-08-17T15:37:33.333Z,71.21
2022-08-17T15:40:02.946Z,74.15
2022-08-17T15:42:29.503Z,75.45
2022-08-17T15:44:56.033Z,76.57
2022-08-17T15:47:23.265Z,77.36
2022-08-17T15:49:50.747Z,78.44
2022-08-17T15:52:25.129Z,79.66
2022-08-17T15:54:56.625Z,79.98
2022-08-17T15:57:26.914Z,77.56
2022-08-17T15:59:58.886Z,77.34
2022-08-17T16:03:44.413Z,77.78
2022-08-17T16:05:25.183Z,74.90
2022-08-17T16:07:52.560Z,74.67
2022-08-17T16:10:19.706Z,72.42
2022-08-17T16:12:48.216Z,72.53
2022-08-17T16:15:15.318Z,71.37
2022-08-17T16:17:41.810Z,70.76
2022-08-17T16:20:19.601Z,69.98
2022-08-17T16:22:47.277Z,72.91
2022-08-17T16:25:20.299Z,71.97
2022-08-17T16:27:48.654Z,73.09
2022-08-17T16:30:17.649Z,71.58
2022-08-17T16:32:44.983Z,71.07
2022-08-17T16:35:12.146Z,72.72
2022-08-17T16:37:40.184Z,74.39
2022-08-17T16:40:11.778Z,75.79
2022-08-17T16:42:39.589Z,78.13
2022-08-17T16:45:16.761Z,80.59
2022-08-17T16:47:43.593Z,82.49
2022-08-17T16:50:12.548Z,82.66
2022-08-17T16:52:40.001Z,82.44
2022-08-17T16:55:08.675Z,85.36
2022-08-17T16:57:37.273Z,85.69
2022-08-17T17:00:15.937Z,86.06
2022-08-17T17:02:47.881Z,86.03
2022-08-17T17:05:37.689Z,85.83
2022-08-17T17:08:12.670Z,86.42
2022-08-17T17:10:45.673Z,86.47
2022-08-17T17:13:27.753Z,84.60
2022-08-17T17:16:21.741Z,85.18
2022-08-17T17:19:01.525Z,85.33
2022-08-17T17:21:35.367Z,85.86
2022-08-17T17:24:09.360Z,89.15
2022-08-17T17:26:57.969Z,90.57
2022-08-17T17:29:48.545Z,91.71
2022-08-17T17:32:44.460Z,93.49
2022-08-17T17:35:16.308Z,93.07
2022-08-17T17:37:43.068Z,92.23
2022-08-17T17:40:23.749Z,91.73
2022-08-17T17:42:55.967Z,91.16
2022-08-17T17:45:23.815Z,90.79
2022-08-17T17:47:50.512Z,91.10
2022-08-17T17:50:19.200Z,91.13
2022-08-17T17:53:17.896Z,94.66
2022-08-17T17:56:34.933Z,96.53
2022-08-17T17:59:16.178Z,96.42
2022-08-17T18:02:36.854Z,97.62
2022-08-17T18:05:18.484Z,98.38
2022-08-17T18:07:54.216Z,98.14
2022-08-17T18:10:29.562Z,98.19
2022-08-17T18:13:08.973Z,100.00
2022-08-17T18:15:51.568Z,100.00
2022-08-17T18:18:17.899Z,100.00
2022-08-17T18:20:53.839Z,100.00
2022-08-17T18:23:27.695Z,100.00
2022-08-17T18:25:55.066Z,100.00
2022-08-17T18:28:26.736Z,100.00
2022-08-17T18:31:22.557Z,100.00
2022-08-17T18:33:51.593Z,100.00
2022-08-17T18:36:32.462Z,100.00
2022-08-17T18:39:17.653Z,100.00
2022-08-17T18:41:50.319Z,100.00
2022-08-17T18:44:25.338Z,100.00
2022-08-17T18:47:19.091Z,100.00
2022-08-17T18:50:10.855Z,100.00
2022-08-17T18:52:37.311Z,100.00
2022-08-17T18:55:16.416Z,100.00
2022-08-17T18:57:49.672Z,100.00
2022-08-17T19:00:20.458Z,100.00
2022-08-17T19:02:55.827Z,100.00
2022-08-17T19:05:33.386Z,100.00
2022-08-17T19:08:20.469Z,100.00
2022-08-17T19:10:49.259Z,100.00
2022-08-17T19:13:24.518Z,100.00
2022-08-17T19:16:13.027Z,100.00
2022-08-17T19:18:50.956Z,100.00
2022-08-17T19:25:19.433Z,100.00
2022-08-17T19:31:35.434Z,100.00
2022-08-17T19:34:01.906Z,100.00
2022-08-17T19:36:50.176Z,100.00
2022-08-17T19:39:38.366Z,100.00
2022-08-17T19:42:14.158Z,100.00
2022-08-17T19:48:39.049Z,100.00
2022-08-17T19:51:10.597Z,100.00
2022-08-17T19:54:04.913Z,100.00
2022-08-17T19:56:44.474Z,100.00
2022-08-17T19:59:36.018Z,100.00
2022-08-17T20:02:28.236Z,100.00
2022-08-17T20:04:59.165Z,100.00
2022-08-17T20:07:45.496Z,100.00
2022-08-17T20:10:30.855Z,100.00
2022-08-17T20:13:04.048Z,100.00
2022-08-17T20:15:34.416Z,100.00
2022-08-17T20:18:02.708Z,100.00
2022-08-17T20:20:47.242Z,100.00
2022-08-17T20:23:30.693Z,100.00
2022-08-17T20:26:08.366Z,100.00
2022-08-17T20:28:38.817Z,100.00
2022-08-17T20:31:38.688Z,100.00
2022-08-17T20:34:37.345Z,100.00
2022-08-17T20:37:13.045Z,100.00
2022-08-17T20:39:44.644Z,100.00
2022-08-17T20:42:30.763Z,100.00
2022-08-17T20:45:05.458Z,100.00
2022-08-17T20:47:55.339Z,100.00
2022-08-17T20:50:35.500Z,100.00
2022-08-17T20:53:02.754Z,100.00
2022-08-17T20:55:51.426Z,100.00
2022-08-17T20:58:36.923Z,100.00
2022-08-17T21:01:12.134Z,100.00
2022-08-17T21:03:51.304Z,100.00
2022-08-17T21:06:20.481Z,100.00
2022-08-17T21:08:58.717Z,100.00
2022-08-17T21:11:56.864Z,100.00
2022-08-17T21:14:31.534Z,100.00
2022-08-17T21:17:01.335Z,100.00
2022-08-17T21:20:00.192Z,100.00
2022-08-17T21:23:00.762Z,100.00
2022-08-17T21:26:04.214Z,100.00
2022-08-17T21:29:30.230Z,100.00
2022-08-17T21:32:03.755Z,100.00
2022-08-17T21:34:37.813Z,100.00
2022-08-17T21:37:23.331Z,100.00
2022-08-17T21:39:57.498Z,100.00
2022-08-17T21:42:33.903Z,100.00
2022-08-17T21:45:22.407Z,100.00
2022-08-17T21:47:51.046Z,100.00
2022-08-17T21:50:23.462Z,100.00
2022-08-17T21:52:53.882Z,100.00
2022-08-17T21:55:28.009Z,100.00
2022-08-17T21:58:13.502Z,100.00
2022-08-17T22:00:41.733Z,100.00
2022-08-17T22:03:22.454Z,100.00
2022-08-17T22:05:51.126Z,100.00
2022-08-17T22:08:26.799Z,100.00
2022-08-17T22:11:01.282Z,100.00
2022-08-17T22:13:29.786Z,100.00
2022-08-17T22:16:29.477Z,100.00
2022-08-17T22:18:58.257Z,100.00
2022-08-17T22:21:25.526Z,100.00
2022-08-17T22:24:05.089Z,100.00
2022-08-17T22:27:00.010Z,100.00
2022-08-17T22:30:00.202Z,100.00
2022-08-17T22:32:42.239Z,100.00
2022-08-17T22:35:26.794Z,100.00
2022-08-17T22:37:53.272Z,100.00
2022-08-17T22:40:32.026Z,100.00
2022-08-17T22:43:00.709Z,100.00
2022-08-17T22:45:29.679Z,100.00
2022-08-17T22:47:57.538Z,100.00
2022-08-17T22:50:31.451Z,100.00
2022-08-17T22:53:22.490Z,100.00
2022-08-17T22:56:12.736Z,100.00
2022-08-17T22:59:08.617Z,100.00
2022-08-17T23:01:35.459Z,100.00
2022-08-17T23:04:15.911Z,100.00
2022-08-17T23:06:42.484Z,100.00
2022-08-17T23:09:09.204Z,100.00
2022-08-17T23:11:49.958Z,100.00
2022-08-17T23:14:19.022Z,100.00
2022-08-17T23:16:45.565Z,100.00
2022-08-17T23:19:15.378Z,100.00
2022-08-17T23:21:44.633Z,100.00
2022-08-17T23:24:16.012Z,100.00
2022-08-17T23:26:42.442Z,100.00
2022-08-17T23:29:09.328Z,100.00
2022-08-17T23:31:38.442Z,100.00
2022-08-17T23:34:08.993Z,100.00
2022-08-17T23:36:35.937Z,100.00
2022-08-17T23:39:02.673Z,100.00
2022-08-17T23:41:34.412Z,100.00
2022-08-17T23:44:01.722Z,100.00
2022-08-17T23:46:28.161Z,100.00
2022-08-17T23:48:54.618Z,100.00
2022-08-17T23:51:26.302Z,100.00
2022-08-17T23:53:55.405Z,100.00
2022-08-17T23:56:25.697Z,100.00
2022-08-17T23:58:54.658Z,100.00
